createdAt,value
2023-05-10T00:01:47.877Z,8.38
2023-05-10T00:04:16.481Z,8.85
2023-05-10T00:06:45.709Z,9.55
2023-05-10T00:09:13.708Z,8.35
2023-05-10T00:11:42.425Z,10.95
2023-05-10T00:14:10.877Z,9.85
2023-05-10T00:16:40.243Z,12.00
2023-05-10T00:21:36.951Z,11.20
2023-05-10T00:24:05.785Z,9.75
2023-05-10T00:26:33.698Z,9.80
2023-05-10T00:29:02.355Z,9.50
2023-05-10T00:31:30.795Z,10.40
2023-05-10T00:34:00.610Z,9.43
2023-05-10T00:38:57.699Z,9.57
2023-05-10T00:41:25.715Z,10.65
2023-05-10T00:43:53.843Z,10.27
2023-05-10T00:46:23.334Z,11.73
2023-05-10T00:48:51.629Z,11.07
2023-05-10T00:51:22.244Z,12.05
2023-05-10T00:53:52.056Z,11.00
2023-05-10T00:56:24.257Z,11.63
2023-05-10T00:58:52.457Z,10.93
2023-05-10T01:01:21.504Z,10.85
2023-05-10T01:03:50.028Z,11.95
2023-05-10T01:06:17.908Z,11.63
2023-05-10T01:08:48.693Z,11.20
2023-05-10T01:11:17.604Z,10.25
2023-05-10T01:13:48.203Z,9.70
2023-05-10T01:16:17.370Z,12.00
2023-05-10T01:18:46.623Z,11.38
2023-05-10T01:21:23.324Z,10.85
2023-05-10T01:24:14.788Z,10.93
2023-05-10T01:27:17.743Z,12.90
2023-05-10T01:30:32.958Z,13.55
2023-05-10T01:33:07.403Z,10.50
2023-05-10T01:35:42.573Z,12.43
2023-05-10T01:38:19.113Z,12.02
2023-05-10T01:41:01.580Z,15.05
2023-05-10T01:43:35.234Z,11.32
2023-05-10T01:46:12.458Z,8.23
2023-05-10T01:48:49.311Z,7.97
2023-05-10T01:51:22.412Z,7.93
2023-05-10T01:53:52.295Z,8.05
2023-05-10T01:56:25.680Z,7.43
2023-05-10T01:58:57.332Z,7.32
2023-05-10T02:01:28.221Z,7.82
2023-05-10T02:03:59.300Z,8.32
2023-05-10T02:06:29.839Z,7.60
2023-05-10T02:08:58.284Z,5.55
2023-05-10T02:11:27.760Z,7.35
2023-05-10T02:13:58.761Z,8.35
2023-05-10T02:16:31.867Z,5.95
2023-05-10T02:19:04.472Z,5.68
2023-05-10T02:21:33.785Z,6.00
2023-05-10T02:24:08.990Z,5.93
2023-05-10T02:27:00.702Z,5.28
2023-05-10T02:29:30.865Z,4.00
2023-05-10T02:32:00.384Z,6.47
2023-05-10T02:34:30.609Z,4.28
2023-05-10T02:36:59.004Z,4.65
2023-05-10T02:39:29.380Z,4.57
2023-05-10T02:41:59.597Z,5.40
2023-05-10T02:44:32.513Z,5.07
2023-05-10T02:47:01.336Z,7.38
2023-05-10T02:49:32.474Z,9.15
2023-05-10T02:52:06.796Z,10.35
2023-05-10T02:54:39.849Z,12.52
2023-05-10T02:57:12.138Z,11.88
2023-05-10T02:59:41.034Z,13.10
2023-05-10T03:02:09.678Z,9.35
2023-05-10T03:04:39.218Z,8.57
2023-05-10T03:09:36.608Z,12.05
2023-05-10T03:12:13.044Z,14.40
2023-05-10T03:14:51.956Z,15.77
2023-05-10T03:17:27.790Z,16.98
2023-05-10T03:19:59.695Z,16.80
2023-05-10T03:22:30.630Z,14.52
2023-05-10T03:25:00.506Z,16.58
2023-05-10T03:27:32.636Z,17.77
2023-05-10T03:30:02.589Z,19.70
2023-05-10T03:32:35.423Z,19.67
2023-05-10T03:35:09.393Z,20.48
2023-05-10T03:37:38.151Z,18.48
2023-05-10T03:40:08.729Z,19.90
2023-05-10T03:42:39.555Z,20.85
2023-05-10T03:45:08.747Z,18.95
2023-05-10T03:47:37.048Z,15.55
2023-05-10T03:50:08.658Z,15.07
2023-05-10T03:52:36.627Z,13.05
2023-05-10T03:55:05.468Z,11.77
2023-05-10T03:57:33.908Z,10.32
2023-05-10T04:00:02.020Z,10.55
2023-05-10T04:02:31.477Z,8.05
2023-05-10T04:05:00.014Z,7.88
2023-05-10T04:07:29.487Z,9.43
2023-05-10T04:09:57.886Z,8.25
2023-05-10T04:12:26.268Z,6.90
2023-05-10T04:14:54.690Z,3.63
2023-05-10T04:17:23.111Z,5.43
2023-05-10T04:19:54.057Z,4.72
2023-05-10T04:22:22.982Z,4.18
2023-05-10T04:24:52.803Z,3.88
2023-05-10T04:27:20.839Z,3.40
2023-05-10T04:29:49.787Z,2.90
2023-05-10T04:32:18.295Z,2.83
2023-05-10T04:34:47.293Z,2.37
2023-05-10T04:37:15.266Z,3.00
2023-05-10T04:39:44.164Z,2.30
2023-05-10T04:42:16.321Z,2.85
2023-05-10T04:44:44.627Z,3.65
2023-05-10T04:47:14.642Z,2.58
2023-05-10T04:49:42.576Z,2.80
2023-05-10T04:52:11.775Z,3.67
2023-05-10T04:54:39.708Z,4.55
2023-05-10T04:57:07.638Z,4.55
2023-05-10T04:59:38.356Z,4.20
2023-05-10T05:02:07.211Z,4.28
2023-05-10T05:04:36.264Z,5.47
2023-05-10T05:07:04.685Z,3.92
2023-05-10T05:09:33.180Z,4.38
2023-05-10T05:12:01.664Z,3.78
2023-05-10T05:14:29.620Z,3.67
2023-05-10T05:16:58.899Z,4.20
2023-05-10T05:19:27.877Z,3.78
2023-05-10T05:21:56.271Z,3.47
2023-05-10T05:24:24.229Z,4.88
2023-05-10T05:26:53.179Z,5.25
2023-05-10T05:29:21.107Z,4.85
2023-05-10T05:31:49.494Z,4.88
2023-05-10T05:34:18.802Z,5.55
2023-05-10T05:36:47.690Z,5.65
2023-05-10T05:39:15.931Z,4.47
2023-05-10T05:41:44.635Z,5.30
2023-05-10T05:44:13.048Z,5.72
2023-05-10T05:46:41.514Z,3.97
2023-05-10T05:49:09.480Z,4.63
2023-05-10T05:51:39.728Z,5.03
2023-05-10T05:56:35.926Z,4.90
2023-05-10T05:59:05.168Z,5.85
2023-05-10T06:01:33.101Z,4.60
2023-05-10T06:04:02.031Z,4.18
2023-05-10T06:06:30.289Z,4.63
2023-05-10T06:09:00.076Z,4.10
2023-05-10T06:11:28.515Z,5.00
2023-05-10T06:13:56.467Z,5.70
2023-05-10T06:16:25.344Z,6.95
2023-05-10T06:18:53.259Z,3.90
2023-05-10T06:21:22.057Z,4.00
2023-05-10T06:23:50.431Z,5.03
2023-05-10T06:26:19.675Z,2.80
2023-05-10T06:28:47.624Z,3.58
2023-05-10T06:31:16.102Z,3.40
2023-05-10T06:33:44.180Z,4.38
2023-05-10T06:36:13.088Z,4.35
2023-05-10T06:38:41.762Z,5.07
2023-05-10T06:41:09.927Z,7.72
2023-05-10T06:43:42.696Z,4.07
2023-05-10T06:46:11.195Z,5.43
2023-05-10T06:48:39.125Z,3.97
2023-05-10T06:51:07.576Z,6.35
2023-05-10T06:53:35.521Z,5.55
2023-05-10T06:56:05.094Z,3.95
2023-05-10T06:58:34.413Z,6.00
2023-05-10T07:01:07.712Z,5.20
2023-05-10T07:03:36.807Z,4.80
2023-05-10T07:06:05.774Z,5.55
2023-05-10T07:08:34.261Z,4.30
2023-05-10T07:11:03.834Z,4.38
2023-05-10T07:13:32.689Z,5.95
2023-05-10T07:16:01.547Z,4.35
2023-05-10T07:18:31.955Z,6.75
2023-05-10T07:23:27.840Z,6.25
2023-05-10T07:25:56.484Z,6.65
2023-05-10T07:28:26.188Z,5.25
2023-05-10T07:30:54.205Z,6.15
2023-05-10T07:33:22.690Z,6.78
2023-05-10T07:35:52.161Z,9.23
2023-05-10T07:38:20.547Z,11.23
2023-05-10T07:40:48.497Z,6.60
2023-05-10T07:43:16.879Z,9.30
2023-05-10T07:45:45.308Z,9.75
2023-05-10T07:48:13.222Z,11.25
2023-05-10T07:50:41.995Z,8.48
2023-05-10T07:53:11.516Z,11.35
2023-05-10T07:55:40.313Z,12.85
2023-05-10T07:58:08.203Z,10.95
2023-05-10T08:00:37.060Z,11.30
2023-05-10T08:03:05.270Z,13.05
2023-05-10T08:05:35.232Z,12.73
2023-05-10T08:08:03.696Z,16.58
2023-05-10T08:10:33.694Z,14.57
2023-05-10T08:13:01.603Z,12.57
2023-05-10T08:15:30.453Z,12.60
2023-05-10T08:17:58.900Z,14.68
2023-05-10T08:20:26.969Z,13.48
2023-05-10T08:22:55.368Z,13.25
2023-05-10T08:25:23.806Z,16.92
2023-05-10T08:27:53.115Z,13.93
2023-05-10T08:30:22.104Z,13.10
2023-05-10T08:32:50.709Z,15.07
2023-05-10T08:35:18.895Z,13.25
2023-05-10T08:37:47.410Z,15.30
2023-05-10T08:40:16.449Z,13.57
2023-05-10T08:42:52.720Z,14.02
2023-05-10T08:45:25.071Z,13.68
2023-05-10T08:47:54.530Z,20.15
2023-05-10T08:50:23.676Z,15.00
2023-05-10T08:52:55.089Z,13.88
2023-05-10T08:55:24.279Z,13.80
2023-05-10T08:57:53.190Z,17.90
2023-05-10T09:00:24.658Z,14.57
2023-05-10T09:02:53.729Z,15.10
2023-05-10T09:05:21.974Z,17.88
2023-05-10T09:07:50.509Z,18.63
2023-05-10T09:10:18.849Z,19.52
2023-05-10T09:12:48.388Z,19.25
2023-05-10T09:15:17.770Z,19.67
2023-05-10T09:17:48.768Z,20.52
2023-05-10T09:20:18.369Z,21.05
2023-05-10T09:22:46.950Z,21.73
2023-05-10T09:25:17.987Z,23.80
2023-05-10T09:27:48.211Z,23.27
2023-05-10T09:30:19.748Z,22.98
2023-05-10T09:32:51.154Z,23.13
2023-05-10T09:35:22.093Z,22.05
2023-05-10T09:37:51.600Z,21.23
2023-05-10T09:40:22.121Z,21.23
2023-05-10T09:42:54.623Z,22.92
2023-05-10T09:45:24.000Z,24.17
2023-05-10T09:47:53.497Z,21.73
2023-05-10T09:50:21.718Z,20.67
2023-05-10T09:52:52.464Z,19.95
2023-05-10T09:55:22.774Z,20.25
2023-05-10T09:58:00.687Z,20.33
2023-05-10T10:00:29.333Z,18.48
2023-05-10T10:03:00.702Z,17.27
2023-05-10T10:05:31.855Z,17.17
2023-05-10T10:08:01.705Z,16.75
2023-05-10T10:10:31.134Z,15.40
2023-05-10T10:12:59.317Z,17.77
2023-05-10T10:15:28.176Z,16.15
2023-05-10T10:17:56.483Z,17.23
2023-05-10T10:20:26.643Z,16.17
2023-05-10T10:22:56.170Z,16.10
2023-05-10T10:25:25.129Z,16.20
2023-05-10T10:28:13.373Z,15.60
2023-05-10T10:30:44.765Z,11.00
2023-05-10T10:33:33.366Z,10.68
2023-05-10T10:36:05.070Z,9.95
2023-05-10T10:39:00.702Z,10.63
2023-05-10T10:41:33.885Z,11.43
2023-05-10T10:44:28.249Z,10.05
2023-05-10T10:47:09.690Z,9.20
2023-05-10T10:49:45.801Z,11.90
2023-05-10T10:52:24.794Z,12.15
2023-05-10T10:54:54.017Z,9.02
2023-05-10T10:57:23.798Z,14.70
2023-05-10T10:59:52.266Z,11.88
2023-05-10T11:02:45.585Z,12.73
2023-05-10T11:05:47.308Z,9.27
2023-05-10T11:08:23.325Z,9.48
2023-05-10T11:11:04.396Z,11.25
2023-05-10T11:13:34.563Z,13.50
2023-05-10T11:16:16.134Z,7.90
2023-05-10T11:19:03.385Z,11.52
2023-05-10T11:21:32.337Z,8.85
2023-05-10T11:24:07.283Z,8.23
2023-05-10T11:26:38.188Z,5.43
2023-05-10T11:29:07.133Z,6.88
2023-05-10T11:31:35.160Z,6.22
2023-05-10T11:34:03.942Z,7.25
2023-05-10T11:36:36.149Z,7.47
2023-05-10T11:39:06.680Z,7.97
2023-05-10T11:41:35.553Z,9.35
2023-05-10T11:44:04.102Z,7.45
2023-05-10T11:46:32.619Z,7.85
2023-05-10T11:49:05.821Z,6.72
2023-05-10T11:51:37.101Z,7.70
2023-05-10T11:54:11.059Z,7.50
2023-05-10T11:56:39.925Z,9.20
2023-05-10T11:59:09.055Z,9.48
2023-05-10T12:04:06.231Z,8.57
2023-05-10T12:06:40.304Z,7.38
2023-05-10T12:09:10.120Z,7.88
2023-05-10T12:11:41.861Z,7.38
2023-05-10T12:14:13.227Z,8.95
2023-05-10T12:16:41.258Z,10.47
2023-05-10T12:19:09.854Z,14.95
2023-05-10T12:21:40.272Z,15.80
2023-05-10T12:24:18.732Z,20.50
2023-05-10T12:26:49.865Z,22.50
2023-05-10T12:29:19.116Z,17.60
2023-05-10T12:31:55.638Z,21.27
2023-05-10T12:34:33.114Z,24.35
2023-05-10T12:37:02.695Z,23.95
2023-05-10T12:39:42.568Z,20.90
2023-05-10T12:42:12.118Z,21.85
2023-05-10T12:44:40.800Z,17.20
2023-05-10T12:47:12.206Z,17.35
2023-05-10T12:49:40.406Z,18.05
2023-05-10T12:52:08.673Z,21.20
2023-05-10T12:54:37.038Z,18.25
2023-05-10T12:57:06.569Z,20.52
2023-05-10T12:59:36.074Z,19.30
2023-05-10T13:02:07.125Z,20.13
2023-05-10T13:04:35.261Z,15.95
2023-05-10T13:07:04.156Z,14.52
2023-05-10T13:09:32.110Z,14.68
2023-05-10T13:12:00.103Z,14.35
2023-05-10T13:14:30.138Z,13.85
2023-05-10T13:16:59.027Z,15.70
2023-05-10T13:19:28.051Z,14.18
2023-05-10T13:21:56.147Z,17.77
2023-05-10T13:24:24.542Z,14.68
2023-05-10T13:26:52.649Z,15.13
2023-05-10T13:29:21.987Z,14.75
2023-05-10T13:34:22.249Z,12.20
2023-05-10T13:36:50.513Z,14.90
2023-05-10T13:39:19.694Z,17.02
2023-05-10T13:41:47.617Z,18.88
2023-05-10T13:44:16.734Z,15.35
2023-05-10T13:46:45.101Z,15.68
2023-05-10T13:49:22.184Z,16.75
2023-05-10T13:51:52.859Z,20.10
2023-05-10T13:54:23.087Z,16.08
2023-05-10T13:56:51.543Z,17.50
2023-05-10T13:59:20.545Z,16.77
2023-05-10T14:01:48.508Z,16.95
2023-05-10T14:04:16.952Z,17.73
2023-05-10T14:06:46.458Z,14.90
2023-05-10T14:09:14.893Z,11.98
2023-05-10T14:11:44.741Z,14.38
2023-05-10T14:14:12.838Z,13.40
2023-05-10T14:16:45.245Z,19.58
2023-05-10T14:19:13.630Z,15.85
2023-05-10T14:21:41.960Z,15.57
2023-05-10T14:24:12.211Z,16.13
2023-05-10T14:29:09.318Z,17.23
2023-05-10T14:31:39.669Z,11.68
2023-05-10T14:34:07.780Z,14.25
2023-05-10T14:36:36.273Z,16.98
2023-05-10T14:39:05.142Z,16.13
2023-05-10T14:41:36.688Z,19.98
2023-05-10T14:46:33.459Z,18.58
2023-05-10T14:49:01.568Z,20.08
2023-05-10T14:51:29.959Z,19.13
2023-05-10T14:53:58.537Z,19.40
2023-05-10T14:56:26.847Z,18.20
2023-05-10T14:58:56.618Z,19.95
2023-05-10T15:03:54.179Z,18.63
2023-05-10T15:06:26.155Z,17.20
2023-05-10T15:08:54.957Z,18.05
2023-05-10T15:11:22.920Z,21.77
2023-05-10T15:13:50.820Z,16.98
2023-05-10T15:16:21.613Z,17.15
2023-05-10T15:18:50.420Z,22.52
2023-05-10T15:21:18.395Z,21.50
2023-05-10T15:23:47.728Z,20.17
2023-05-10T15:26:15.767Z,19.43
2023-05-10T15:28:44.624Z,23.33
2023-05-10T15:31:13.079Z,20.60
2023-05-10T15:33:42.468Z,18.88
2023-05-10T15:38:39.145Z,16.85
2023-05-10T15:41:07.268Z,18.55
2023-05-10T15:43:35.254Z,17.10
2023-05-10T15:46:04.204Z,17.55
2023-05-10T15:48:32.416Z,19.00
2023-05-10T15:51:01.748Z,19.02
2023-05-10T15:55:58.354Z,18.73
2023-05-10T15:58:27.182Z,18.23
2023-05-10T16:00:55.148Z,18.95
2023-05-10T16:03:23.798Z,17.50
2023-05-10T16:05:53.756Z,18.55
2023-05-10T16:08:23.155Z,15.95
2023-05-10T16:10:52.397Z,16.33
2023-05-10T16:13:21.047Z,21.10
2023-05-10T16:15:49.132Z,21.27
2023-05-10T16:18:17.945Z,18.95
2023-05-10T16:20:47.277Z,14.23
2023-05-10T16:23:16.176Z,12.88
2023-05-10T16:25:45.730Z,16.77
2023-05-10T16:28:13.981Z,13.30
2023-05-10T16:30:42.339Z,16.65
2023-05-10T16:33:10.897Z,13.65
2023-05-10T16:35:38.881Z,14.95
2023-05-10T16:38:06.953Z,15.13
2023-05-10T16:40:36.048Z,16.30
2023-05-10T16:43:05.356Z,18.48
2023-05-10T16:45:33.938Z,19.52
2023-05-10T16:48:02.379Z,22.80
2023-05-10T16:50:30.948Z,25.20
2023-05-10T16:52:59.147Z,24.33
2023-05-10T16:55:27.314Z,24.45
2023-05-10T16:58:00.140Z,25.10
2023-05-10T17:00:29.795Z,24.05
2023-05-10T17:02:58.402Z,23.67
2023-05-10T17:05:27.472Z,23.20
2023-05-10T17:07:56.041Z,23.83
2023-05-10T17:10:24.453Z,20.27
2023-05-10T17:12:54.095Z,22.83
2023-05-10T17:15:22.211Z,20.65
2023-05-10T17:17:52.192Z,20.10
2023-05-10T17:20:21.431Z,20.10
2023-05-10T17:22:49.682Z,21.05
2023-05-10T17:25:18.631Z,22.98
2023-05-10T17:27:47.935Z,17.23
2023-05-10T17:30:17.044Z,17.17
2023-05-10T17:32:45.753Z,15.85
2023-05-10T17:35:16.067Z,13.63
2023-05-10T17:37:44.879Z,16.02
2023-05-10T17:40:13.498Z,16.73
2023-05-10T17:42:42.326Z,15.25
2023-05-10T17:45:11.608Z,15.48
2023-05-10T17:47:40.142Z,12.68
2023-05-10T17:50:10.579Z,12.50
2023-05-10T17:52:40.016Z,13.45
2023-05-10T17:55:09.739Z,10.75
2023-05-10T17:57:38.820Z,11.35
2023-05-10T18:00:08.817Z,11.13
2023-05-10T18:02:38.647Z,8.20
2023-05-10T18:05:07.450Z,8.02
2023-05-10T18:07:36.267Z,12.55
2023-05-10T18:10:07.124Z,10.52
2023-05-10T18:12:35.002Z,10.55
2023-05-10T18:15:04.061Z,10.35
2023-05-10T18:17:33.986Z,8.25
2023-05-10T18:20:02.264Z,8.77
2023-05-10T18:22:30.235Z,11.13
2023-05-10T18:24:58.274Z,9.38
2023-05-10T18:27:27.667Z,9.18
2023-05-10T18:29:59.264Z,11.90
2023-05-10T18:32:28.021Z,9.45
2023-05-10T18:34:56.635Z,7.47
2023-05-10T18:37:25.599Z,7.53
2023-05-10T18:39:53.982Z,8.98
2023-05-10T18:42:22.372Z,10.43
2023-05-10T18:44:51.853Z,10.30
2023-05-10T18:47:19.892Z,9.13
2023-05-10T18:49:48.321Z,9.07
2023-05-10T18:52:18.416Z,8.25
2023-05-10T18:54:46.607Z,9.95
2023-05-10T18:57:14.683Z,11.07
2023-05-10T18:59:43.310Z,12.43
2023-05-10T19:02:12.730Z,11.30
2023-05-10T19:04:40.787Z,12.55
2023-05-10T19:07:09.275Z,13.32
2023-05-10T19:09:37.217Z,12.43
2023-05-10T19:12:05.462Z,12.77
2023-05-10T19:14:33.939Z,9.88
2023-05-10T19:17:03.285Z,10.63
2023-05-10T19:19:32.763Z,11.35
2023-05-10T19:22:01.420Z,12.07
2023-05-10T19:24:29.566Z,12.93
2023-05-10T19:26:58.140Z,13.15
2023-05-10T19:29:27.255Z,15.30
2023-05-10T19:31:55.591Z,14.13
2023-05-10T19:34:24.050Z,12.25
2023-05-10T19:36:53.848Z,13.75
2023-05-10T19:41:50.322Z,13.07
2023-05-10T19:44:19.356Z,11.50
2023-05-10T19:46:47.431Z,12.32
2023-05-10T19:49:15.989Z,11.35
2023-05-10T19:51:44.541Z,12.32
2023-05-10T19:54:13.893Z,14.60
2023-05-10T19:59:10.178Z,12.65
2023-05-10T20:01:38.637Z,17.80
2023-05-10T20:04:07.288Z,16.77
2023-05-10T20:06:35.370Z,17.42
2023-05-10T20:09:03.788Z,17.05
2023-05-10T20:11:33.680Z,14.93
2023-05-10T20:16:29.925Z,14.15
2023-05-10T20:18:58.051Z,16.52
2023-05-10T20:21:26.651Z,16.23
2023-05-10T20:23:55.098Z,13.77
2023-05-10T20:26:23.996Z,18.73
2023-05-10T20:28:53.793Z,13.68
2023-05-10T20:31:22.122Z,15.60
2023-05-10T20:33:50.717Z,16.48
2023-05-10T20:36:18.761Z,14.27
2023-05-10T20:38:46.733Z,15.73
2023-05-10T20:41:15.978Z,17.42
2023-05-10T20:43:44.005Z,18.23
2023-05-10T20:46:13.990Z,20.42
2023-05-10T20:48:42.089Z,17.13
2023-05-10T20:51:10.088Z,16.55
2023-05-10T20:53:40.038Z,15.93
2023-05-10T20:56:08.093Z,16.60
2023-05-10T20:58:36.610Z,18.10
2023-05-10T21:01:06.628Z,17.42
2023-05-10T21:03:36.031Z,18.13
2023-05-10T21:08:32.848Z,17.30
2023-05-10T21:11:04.779Z,20.35
2023-05-10T21:13:33.908Z,21.08
2023-05-10T21:16:01.936Z,20.77
2023-05-10T21:18:29.960Z,19.83
2023-05-10T21:20:59.938Z,22.73
2023-05-10T21:23:27.909Z,25.50
2023-05-10T21:25:56.681Z,26.38
2023-05-10T21:28:24.767Z,25.02
2023-05-10T21:30:53.970Z,22.95
2023-05-10T21:33:22.122Z,23.75
2023-05-10T21:35:50.311Z,24.13
2023-05-10T21:38:19.734Z,25.02
2023-05-10T21:43:16.458Z,23.33
2023-05-10T21:45:44.470Z,24.45
2023-05-10T21:48:14.259Z,25.52
2023-05-10T21:50:43.815Z,23.95
2023-05-10T21:53:12.288Z,22.13
2023-05-10T21:55:42.760Z,28.27
2023-05-10T21:58:11.027Z,21.88
2023-05-10T22:00:38.985Z,25.30
2023-05-10T22:03:07.899Z,25.73
2023-05-10T22:05:35.909Z,24.33
2023-05-10T22:08:06.416Z,23.55
2023-05-10T22:10:34.850Z,21.30
2023-05-10T22:13:04.228Z,22.33
2023-05-10T22:18:05.543Z,20.65
2023-05-10T22:20:33.974Z,21.53
2023-05-10T22:23:02.594Z,20.77
2023-05-10T22:25:30.707Z,21.17
2023-05-10T22:27:59.838Z,19.45
2023-05-10T22:30:33.351Z,19.77
2023-05-10T22:33:13.977Z,18.90
2023-05-10T22:42:52.404Z,18.58
2023-05-10T22:45:20.454Z,21.38
2023-05-10T22:47:50.274Z,16.75
2023-05-10T22:52:46.827Z,20.45
2023-05-10T22:55:15.723Z,20.05
2023-05-10T22:57:43.818Z,19.42
2023-05-10T23:00:13.225Z,21.42
2023-05-10T23:02:42.357Z,19.47
2023-05-10T23:05:13.709Z,18.70
2023-05-10T23:07:43.085Z,17.60
2023-05-10T23:10:12.081Z,23.58
2023-05-10T23:12:40.514Z,22.27
2023-05-10T23:15:09.928Z,19.77
2023-05-10T23:17:38.367Z,22.73
2023-05-10T23:20:07.507Z,22.40
2023-05-10T23:22:37.441Z,23.95
2023-05-10T23:25:07.427Z,21.67
2023-05-10T23:27:35.373Z,27.02
2023-05-10T23:30:04.450Z,24.00
2023-05-10T23:32:33.369Z,28.95
2023-05-10T23:35:01.465Z,31.33
2023-05-10T23:37:30.448Z,30.80
2023-05-10T23:40:00.261Z,30.50
2023-05-10T23:42:28.833Z,30.27
2023-05-10T23:44:57.881Z,32.90
2023-05-10T23:47:26.080Z,31.90
2023-05-10T23:49:54.074Z,30.48
2023-05-10T23:52:25.024Z,30.42
2023-05-10T23:54:54.522Z,28.48
2023-05-10T23:57:23.911Z,30.15
2023-05-10T23:59:52.126Z,28.88
